sensor_id;sensor_type;location;lat;lon;timestamp;P1;durP1;ratioP1;P2;durP2;ratioP2
25091;SDS011;13082;52.374;4.946;2023-08-06T00:00:16;19.67;;;10.63;;
25091;SDS011;13082;52.374;4.946;2023-08-06T00:02:42;17.03;;;10.77;;
25091;SDS011;13082;52.374;4.946;2023-08-06T00:05:08;14.43;;;10.20;;
25091;SDS011;13082;52.374;4.946;2023-08-06T00:07:33;13.70;;;9.53;;
25091;SDS011;13082;52.374;4.946;2023-08-06T00:09:59;11.77;;;9.50;;
25091;SDS011;13082;52.374;4.946;2023-08-06T00:12:24;15.93;;;11.33;;
25091;SDS011;13082;52.374;4.946;2023-08-06T00:14:50;13.33;;;9.57;;
25091;SDS011;13082;52.374;4.946;2023-08-06T00:17:17;12.57;;;9.43;;
25091;SDS011;13082;52.374;4.946;2023-08-06T00:19:42;14.07;;;9.13;;
25091;SDS011;13082;52.374;4.946;2023-08-06T00:22:08;14.63;;;9.27;;
25091;SDS011;13082;52.374;4.946;2023-08-06T00:24:34;14.30;;;10.43;;
25091;SDS011;13082;52.374;4.946;2023-08-06T00:26:59;15.13;;;9.00;;
25091;SDS011;13082;52.374;4.946;2023-08-06T00:29:25;11.67;;;8.97;;
25091;SDS011;13082;52.374;4.946;2023-08-06T00:31:51;11.77;;;7.97;;
25091;SDS011;13082;52.374;4.946;2023-08-06T00:34:16;13.90;;;9.33;;
25091;SDS011;13082;52.374;4.946;2023-08-06T00:36:42;9.87;;;7.83;;
25091;SDS011;13082;52.374;4.946;2023-08-06T00:39:07;11.37;;;8.00;;
25091;SDS011;13082;52.374;4.946;2023-08-06T00:41:34;11.47;;;8.17;;
25091;SDS011;13082;52.374;4.946;2023-08-06T00:44:00;12.63;;;8.20;;
25091;SDS011;13082;52.374;4.946;2023-08-06T00:46:26;11.37;;;8.33;;
25091;SDS011;13082;52.374;4.946;2023-08-06T00:48:52;13.27;;;8.80;;
25091;SDS011;13082;52.374;4.946;2023-08-06T00:51:18;12.97;;;8.60;;
25091;SDS011;13082;52.374;4.946;2023-08-06T00:53:45;14.07;;;9.40;;
25091;SDS011;13082;52.374;4.946;2023-08-06T00:56:11;11.33;;;8.37;;
25091;SDS011;13082;52.374;4.946;2023-08-06T00:58:37;12.77;;;7.97;;
25091;SDS011;13082;52.374;4.946;2023-08-06T01:01:04;11.27;;;8.03;;
25091;SDS011;13082;52.374;4.946;2023-08-06T01:03:29;10.83;;;6.87;;
25091;SDS011;13082;52.374;4.946;2023-08-06T01:05:55;7.47;;;5.70;;
25091;SDS011;13082;52.374;4.946;2023-08-06T01:13:59;4.60;;;4.10;;
25091;SDS011;13082;52.374;4.946;2023-08-06T01:16:46;6.10;;;5.27;;
25091;SDS011;13082;52.374;4.946;2023-08-06T01:19:18;9.97;;;6.40;;
25091;SDS011;13082;52.374;4.946;2023-08-06T01:21:44;7.27;;;6.50;;
25091;SDS011;13082;52.374;4.946;2023-08-06T01:24:10;8.30;;;5.57;;
25091;SDS011;13082;52.374;4.946;2023-08-06T01:26:47;8.23;;;6.27;;
25091;SDS011;13082;52.374;4.946;2023-08-06T01:31:50;6.13;;;5.40;;
25091;SDS011;13082;52.374;4.946;2023-08-06T01:34:18;7.03;;;5.27;;
25091;SDS011;13082;52.374;4.946;2023-08-06T01:36:47;9.00;;;5.37;;
25091;SDS011;13082;52.374;4.946;2023-08-06T01:39:13;6.77;;;5.97;;
25091;SDS011;13082;52.374;4.946;2023-08-06T01:41:39;7.47;;;6.20;;
25091;SDS011;13082;52.374;4.946;2023-08-06T01:44:05;8.50;;;6.00;;
25091;SDS011;13082;52.374;4.946;2023-08-06T01:46:30;10.97;;;6.90;;
25091;SDS011;13082;52.374;4.946;2023-08-06T01:48:56;10.13;;;7.40;;
25091;SDS011;13082;52.374;4.946;2023-08-06T01:51:22;8.17;;;6.13;;
25091;SDS011;13082;52.374;4.946;2023-08-06T01:53:47;6.90;;;5.30;;
25091;SDS011;13082;52.374;4.946;2023-08-06T01:56:13;6.13;;;5.53;;
25091;SDS011;13082;52.374;4.946;2023-08-06T01:58:38;6.63;;;5.33;;
25091;SDS011;13082;52.374;4.946;2023-08-06T02:01:04;9.60;;;6.87;;
25091;SDS011;13082;52.374;4.946;2023-08-06T02:03:29;9.53;;;6.47;;
25091;SDS011;13082;52.374;4.946;2023-08-06T02:05:55;9.07;;;5.77;;
25091;SDS011;13082;52.374;4.946;2023-08-06T02:08:21;6.13;;;4.83;;
25091;SDS011;13082;52.374;4.946;2023-08-06T02:10:46;5.77;;;4.70;;
25091;SDS011;13082;52.374;4.946;2023-08-06T02:13:12;7.73;;;5.10;;
25091;SDS011;13082;52.374;4.946;2023-08-06T02:15:44;9.93;;;5.60;;
25091;SDS011;13082;52.374;4.946;2023-08-06T02:18:12;8.43;;;6.17;;
25091;SDS011;13082;52.374;4.946;2023-08-06T02:20:38;8.00;;;5.60;;
25091;SDS011;13082;52.374;4.946;2023-08-06T02:23:04;7.47;;;5.83;;
25091;SDS011;13082;52.374;4.946;2023-08-06T02:25:29;7.93;;;5.70;;
25091;SDS011;13082;52.374;4.946;2023-08-06T02:27:55;8.60;;;6.10;;
25091;SDS011;13082;52.374;4.946;2023-08-06T02:30:21;7.93;;;5.50;;
25091;SDS011;13082;52.374;4.946;2023-08-06T02:32:46;6.10;;;4.67;;
25091;SDS011;13082;52.374;4.946;2023-08-06T02:35:12;7.83;;;5.20;;
25091;SDS011;13082;52.374;4.946;2023-08-06T02:37:37;6.40;;;4.77;;
25091;SDS011;13082;52.374;4.946;2023-08-06T02:40:03;7.50;;;5.70;;
25091;SDS011;13082;52.374;4.946;2023-08-06T02:42:29;8.70;;;5.90;;
25091;SDS011;13082;52.374;4.946;2023-08-06T02:44:55;5.57;;;4.43;;
25091;SDS011;13082;52.374;4.946;2023-08-06T02:47:20;9.87;;;6.23;;
25091;SDS011;13082;52.374;4.946;2023-08-06T02:49:46;7.93;;;5.50;;
25091;SDS011;13082;52.374;4.946;2023-08-06T02:52:12;8.57;;;6.17;;
25091;SDS011;13082;52.374;4.946;2023-08-06T02:54:37;5.40;;;4.67;;
25091;SDS011;13082;52.374;4.946;2023-08-06T02:57:03;6.33;;;4.90;;
25091;SDS011;13082;52.374;4.946;2023-08-06T02:59:30;7.50;;;4.87;;
25091;SDS011;13082;52.374;4.946;2023-08-06T03:01:56;5.23;;;4.50;;
25091;SDS011;13082;52.374;4.946;2023-08-06T03:04:21;3.80;;;3.40;;
25091;SDS011;13082;52.374;4.946;2023-08-06T03:06:48;3.53;;;3.23;;
25091;SDS011;13082;52.374;4.946;2023-08-06T03:09:15;3.57;;;3.27;;
25091;SDS011;13082;52.374;4.946;2023-08-06T03:11:40;4.53;;;3.70;;
25091;SDS011;13082;52.374;4.946;2023-08-06T03:14:06;2.90;;;2.60;;
25091;SDS011;13082;52.374;4.946;2023-08-06T03:16:31;4.70;;;3.43;;
25091;SDS011;13082;52.374;4.946;2023-08-06T03:18:57;4.17;;;3.57;;
25091;SDS011;13082;52.374;4.946;2023-08-06T03:21:22;3.43;;;3.13;;
25091;SDS011;13082;52.374;4.946;2023-08-06T03:23:48;3.70;;;3.30;;
25091;SDS011;13082;52.374;4.946;2023-08-06T03:26:14;4.17;;;2.80;;
25091;SDS011;13082;52.374;4.946;2023-08-06T03:28:39;4.00;;;2.97;;
25091;SDS011;13082;52.374;4.946;2023-08-06T03:31:05;3.30;;;3.00;;
25091;SDS011;13082;52.374;4.946;2023-08-06T03:33:30;3.40;;;3.10;;
25091;SDS011;13082;52.374;4.946;2023-08-06T03:35:56;3.20;;;2.90;;
25091;SDS011;13082;52.374;4.946;2023-08-06T03:38:22;4.50;;;3.23;;
25091;SDS011;13082;52.374;4.946;2023-08-06T03:40:48;3.10;;;2.80;;
25091;SDS011;13082;52.374;4.946;2023-08-06T03:43:13;2.97;;;2.67;;
25091;SDS011;13082;52.374;4.946;2023-08-06T03:45:40;3.00;;;2.67;;
25091;SDS011;13082;52.374;4.946;2023-08-06T03:48:06;2.10;;;1.93;;
25091;SDS011;13082;52.374;4.946;2023-08-06T03:50:31;1.77;;;1.67;;
25091;SDS011;13082;52.374;4.946;2023-08-06T03:52:57;1.57;;;1.47;;
25091;SDS011;13082;52.374;4.946;2023-08-06T03:55:23;9.23;;;1.83;;
25091;SDS011;13082;52.374;4.946;2023-08-06T03:57:48;1.60;;;1.50;;
25091;SDS011;13082;52.374;4.946;2023-08-06T04:00:14;1.47;;;1.37;;
25091;SDS011;13082;52.374;4.946;2023-08-06T04:02:40;1.47;;;1.37;;
25091;SDS011;13082;52.374;4.946;2023-08-06T04:05:05;1.57;;;1.47;;
25091;SDS011;13082;52.374;4.946;2023-08-06T04:07:31;1.40;;;1.30;;
25091;SDS011;13082;52.374;4.946;2023-08-06T04:09:57;2.33;;;1.60;;
25091;SDS011;13082;52.374;4.946;2023-08-06T04:12:24;1.70;;;1.60;;
25091;SDS011;13082;52.374;4.946;2023-08-06T04:14:50;3.07;;;2.00;;
25091;SDS011;13082;52.374;4.946;2023-08-06T04:17:17;1.47;;;1.37;;
25091;SDS011;13082;52.374;4.946;2023-08-06T04:19:45;1.60;;;1.50;;
25091;SDS011;13082;52.374;4.946;2023-08-06T04:22:15;2.53;;;2.00;;
25091;SDS011;13082;52.374;4.946;2023-08-06T04:24:41;1.73;;;1.60;;
25091;SDS011;13082;52.374;4.946;2023-08-06T04:27:08;1.80;;;1.70;;
25091;SDS011;13082;52.374;4.946;2023-08-06T04:29:34;1.73;;;1.63;;
25091;SDS011;13082;52.374;4.946;2023-08-06T04:32:00;3.00;;;1.97;;
25091;SDS011;13082;52.374;4.946;2023-08-06T04:34:26;2.17;;;2.00;;
25091;SDS011;13082;52.374;4.946;2023-08-06T04:36:52;1.97;;;1.87;;
25091;SDS011;13082;52.374;4.946;2023-08-06T04:39:17;2.67;;;2.07;;
25091;SDS011;13082;52.374;4.946;2023-08-06T04:41:43;3.27;;;2.97;;
25091;SDS011;13082;52.374;4.946;2023-08-06T04:44:09;4.87;;;2.83;;
25091;SDS011;13082;52.374;4.946;2023-08-06T04:46:34;3.43;;;2.77;;
25091;SDS011;13082;52.374;4.946;2023-08-06T04:49:00;2.43;;;2.17;;
25091;SDS011;13082;52.374;4.946;2023-08-06T04:51:26;3.50;;;2.30;;
25091;SDS011;13082;52.374;4.946;2023-08-06T04:53:51;3.70;;;2.57;;
25091;SDS011;13082;52.374;4.946;2023-08-06T04:56:17;2.67;;;2.17;;
25091;SDS011;13082;52.374;4.946;2023-08-06T04:58:42;2.30;;;2.10;;
25091;SDS011;13082;52.374;4.946;2023-08-06T05:01:08;2.47;;;2.27;;
25091;SDS011;13082;52.374;4.946;2023-08-06T05:03:34;2.30;;;2.10;;
25091;SDS011;13082;52.374;4.946;2023-08-06T05:05:59;3.40;;;3.00;;
25091;SDS011;13082;52.374;4.946;2023-08-06T05:08:25;3.47;;;2.47;;
25091;SDS011;13082;52.374;4.946;2023-08-06T05:10:50;3.50;;;3.00;;
25091;SDS011;13082;52.374;4.946;2023-08-06T05:13:16;3.87;;;3.17;;
25091;SDS011;13082;52.374;4.946;2023-08-06T05:15:41;3.67;;;3.37;;
25091;SDS011;13082;52.374;4.946;2023-08-06T05:18:08;6.13;;;3.23;;
25091;SDS011;13082;52.374;4.946;2023-08-06T05:20:37;5.07;;;4.00;;
25091;SDS011;13082;52.374;4.946;2023-08-06T05:23:03;4.87;;;4.37;;
25091;SDS011;13082;52.374;4.946;2023-08-06T05:25:29;6.40;;;4.30;;
25091;SDS011;13082;52.374;4.946;2023-08-06T05:27:55;6.10;;;4.33;;
25091;SDS011;13082;52.374;4.946;2023-08-06T05:30:21;4.70;;;4.30;;
25091;SDS011;13082;52.374;4.946;2023-08-06T05:32:46;5.50;;;4.20;;
25091;SDS011;13082;52.374;4.946;2023-08-06T05:35:12;5.57;;;4.30;;
25091;SDS011;13082;52.374;4.946;2023-08-06T05:37:37;9.17;;;5.67;;
25091;SDS011;13082;52.374;4.946;2023-08-06T05:40:03;4.90;;;4.43;;
25091;SDS011;13082;52.374;4.946;2023-08-06T05:42:29;5.37;;;4.87;;
25091;SDS011;13082;52.374;4.946;2023-08-06T05:44:55;6.83;;;5.00;;
25091;SDS011;13082;52.374;4.946;2023-08-06T05:47:21;4.73;;;4.30;;
25091;SDS011;13082;52.374;4.946;2023-08-06T05:49:46;6.00;;;4.73;;
25091;SDS011;13082;52.374;4.946;2023-08-06T05:52:12;5.80;;;4.90;;
25091;SDS011;13082;52.374;4.946;2023-08-06T05:54:38;5.63;;;4.40;;
25091;SDS011;13082;52.374;4.946;2023-08-06T05:57:03;6.50;;;4.90;;
25091;SDS011;13082;52.374;4.946;2023-08-06T05:59:29;5.93;;;5.27;;
25091;SDS011;13082;52.374;4.946;2023-08-06T06:01:55;6.43;;;4.57;;
25091;SDS011;13082;52.374;4.946;2023-08-06T06:04:21;5.00;;;4.40;;
25091;SDS011;13082;52.374;4.946;2023-08-06T06:06:46;6.77;;;5.10;;
25091;SDS011;13082;52.374;4.946;2023-08-06T06:09:12;6.70;;;4.97;;
25091;SDS011;13082;52.374;4.946;2023-08-06T06:11:37;7.57;;;5.27;;
25091;SDS011;13082;52.374;4.946;2023-08-06T06:14:03;7.50;;;5.27;;
25091;SDS011;13082;52.374;4.946;2023-08-06T06:16:29;6.83;;;5.20;;
25091;SDS011;13082;52.374;4.946;2023-08-06T06:18:54;5.13;;;4.63;;
25091;SDS011;13082;52.374;4.946;2023-08-06T06:21:20;4.83;;;4.07;;
25091;SDS011;13082;52.374;4.946;2023-08-06T06:23:46;5.40;;;4.07;;
25091;SDS011;13082;52.374;4.946;2023-08-06T06:26:12;4.87;;;4.47;;
25091;SDS011;13082;52.374;4.946;2023-08-06T06:28:38;7.27;;;4.53;;
25091;SDS011;13082;52.374;4.946;2023-08-06T06:31:03;6.43;;;4.30;;
25091;SDS011;13082;52.374;4.946;2023-08-06T06:33:29;4.53;;;3.83;;
25091;SDS011;13082;52.374;4.946;2023-08-06T06:35:55;7.13;;;4.00;;
25091;SDS011;13082;52.374;4.946;2023-08-06T06:38:20;7.60;;;3.87;;
25091;SDS011;13082;52.374;4.946;2023-08-06T06:40:58;3.70;;;3.10;;
25091;SDS011;13082;52.374;4.946;2023-08-06T06:43:24;3.20;;;2.90;;
25091;SDS011;13082;52.374;4.946;2023-08-06T06:45:57;3.43;;;2.60;;
25091;SDS011;13082;52.374;4.946;2023-08-06T06:48:24;3.23;;;2.83;;
25091;SDS011;13082;52.374;4.946;2023-08-06T06:50:50;3.13;;;2.83;;
25091;SDS011;13082;52.374;4.946;2023-08-06T06:53:16;5.37;;;2.97;;
25091;SDS011;13082;52.374;4.946;2023-08-06T06:55:42;3.67;;;2.97;;
25091;SDS011;13082;52.374;4.946;2023-08-06T06:58:07;4.53;;;2.97;;
25091;SDS011;13082;52.374;4.946;2023-08-06T07:00:35;4.40;;;3.53;;
25091;SDS011;13082;52.374;4.946;2023-08-06T07:03:02;4.10;;;3.30;;
25091;SDS011;13082;52.374;4.946;2023-08-06T07:05:27;4.83;;;4.10;;
25091;SDS011;13082;52.374;4.946;2023-08-06T07:07:53;3.57;;;2.87;;
25091;SDS011;13082;52.374;4.946;2023-08-06T07:10:19;3.10;;;2.50;;
25091;SDS011;13082;52.374;4.946;2023-08-06T07:12:44;6.40;;;3.77;;
25091;SDS011;13082;52.374;4.946;2023-08-06T07:15:10;5.00;;;3.30;;
25091;SDS011;13082;52.374;4.946;2023-08-06T07:17:36;4.20;;;2.93;;
25091;SDS011;13082;52.374;4.946;2023-08-06T07:20:01;4.47;;;2.80;;
25091;SDS011;13082;52.374;4.946;2023-08-06T07:22:28;5.40;;;3.37;;
25091;SDS011;13082;52.374;4.946;2023-08-06T07:24:53;5.57;;;3.90;;
25091;SDS011;13082;52.374;4.946;2023-08-06T07:27:19;7.27;;;4.50;;
25091;SDS011;13082;52.374;4.946;2023-08-06T07:29:45;4.57;;;3.73;;
25091;SDS011;13082;52.374;4.946;2023-08-06T07:32:10;7.73;;;3.43;;
25091;SDS011;13082;52.374;4.946;2023-08-06T07:34:36;6.47;;;3.87;;
25091;SDS011;13082;52.374;4.946;2023-08-06T07:37:01;4.70;;;3.60;;
25091;SDS011;13082;52.374;4.946;2023-08-06T07:39:27;4.67;;;3.80;;
25091;SDS011;13082;52.374;4.946;2023-08-06T07:41:53;4.27;;;3.60;;
25091;SDS011;13082;52.374;4.946;2023-08-06T07:44:19;5.17;;;3.47;;
25091;SDS011;13082;52.374;4.946;2023-08-06T07:46:45;5.17;;;4.10;;
25091;SDS011;13082;52.374;4.946;2023-08-06T07:49:10;4.83;;;4.43;;
25091;SDS011;13082;52.374;4.946;2023-08-06T07:51:36;10.87;;;5.03;;
25091;SDS011;13082;52.374;4.946;2023-08-06T07:54:02;6.80;;;4.70;;
25091;SDS011;13082;52.374;4.946;2023-08-06T07:56:28;7.37;;;5.27;;
25091;SDS011;13082;52.374;4.946;2023-08-06T07:58:53;9.40;;;5.00;;
25091;SDS011;13082;52.374;4.946;2023-08-06T08:01:19;5.97;;;4.77;;
25091;SDS011;13082;52.374;4.946;2023-08-06T08:03:45;5.70;;;4.53;;
25091;SDS011;13082;52.374;4.946;2023-08-06T08:06:10;5.70;;;4.53;;
25091;SDS011;13082;52.374;4.946;2023-08-06T08:08:36;5.80;;;4.40;;
25091;SDS011;13082;52.374;4.946;2023-08-06T08:11:03;10.47;;;4.97;;
25091;SDS011;13082;52.374;4.946;2023-08-06T08:13:29;5.43;;;4.43;;
25091;SDS011;13082;52.374;4.946;2023-08-06T08:15:58;5.37;;;4.40;;
25091;SDS011;13082;52.374;4.946;2023-08-06T08:18:24;5.73;;;4.73;;
25091;SDS011;13082;52.374;4.946;2023-08-06T08:20:50;7.67;;;4.63;;
25091;SDS011;13082;52.374;4.946;2023-08-06T08:23:16;7.03;;;4.90;;
25091;SDS011;13082;52.374;4.946;2023-08-06T08:25:41;5.63;;;4.63;;
25091;SDS011;13082;52.374;4.946;2023-08-06T08:28:07;7.73;;;4.73;;
25091;SDS011;13082;52.374;4.946;2023-08-06T08:30:33;5.97;;;4.50;;
25091;SDS011;13082;52.374;4.946;2023-08-06T08:32:58;7.97;;;5.50;;
25091;SDS011;13082;52.374;4.946;2023-08-06T08:35:24;6.30;;;4.83;;
25091;SDS011;13082;52.374;4.946;2023-08-06T08:37:50;8.83;;;4.67;;
25091;SDS011;13082;52.374;4.946;2023-08-06T08:40:16;5.67;;;4.57;;
25091;SDS011;13082;52.374;4.946;2023-08-06T08:42:42;7.50;;;4.60;;
25091;SDS011;13082;52.374;4.946;2023-08-06T08:45:12;5.27;;;4.27;;
25091;SDS011;13082;52.374;4.946;2023-08-06T08:47:40;6.30;;;4.70;;
25091;SDS011;13082;52.374;4.946;2023-08-06T08:50:07;6.73;;;4.67;;
25091;SDS011;13082;52.374;4.946;2023-08-06T08:52:35;6.27;;;4.47;;
25091;SDS011;13082;52.374;4.946;2023-08-06T08:55:06;8.10;;;4.70;;
25091;SDS011;13082;52.374;4.946;2023-08-06T08:57:32;7.80;;;4.30;;
25091;SDS011;13082;52.374;4.946;2023-08-06T09:00:01;5.40;;;4.63;;
25091;SDS011;13082;52.374;4.946;2023-08-06T09:02:28;6.40;;;4.47;;
25091;SDS011;13082;52.374;4.946;2023-08-06T09:04:55;6.30;;;3.80;;
25091;SDS011;13082;52.374;4.946;2023-08-06T09:07:31;6.07;;;4.00;;
25091;SDS011;13082;52.374;4.946;2023-08-06T09:10:00;4.47;;;4.07;;
25091;SDS011;13082;52.374;4.946;2023-08-06T09:12:31;5.93;;;3.70;;
25091;SDS011;13082;52.374;4.946;2023-08-06T09:14:57;6.77;;;3.27;;
25091;SDS011;13082;52.374;4.946;2023-08-06T09:17:23;4.27;;;3.43;;
25091;SDS011;13082;52.374;4.946;2023-08-06T09:19:49;7.00;;;3.70;;
25091;SDS011;13082;52.374;4.946;2023-08-06T09:22:15;5.53;;;4.03;;
25091;SDS011;13082;52.374;4.946;2023-08-06T09:24:43;4.53;;;3.40;;
25091;SDS011;13082;52.374;4.946;2023-08-06T09:27:12;4.87;;;3.43;;
25091;SDS011;13082;52.374;4.946;2023-08-06T09:29:45;6.70;;;3.27;;
25091;SDS011;13082;52.374;4.946;2023-08-06T09:32:11;4.50;;;2.90;;
25091;SDS011;13082;52.374;4.946;2023-08-06T09:34:41;6.53;;;3.30;;
25091;SDS011;13082;52.374;4.946;2023-08-06T09:37:08;3.50;;;2.73;;
25091;SDS011;13082;52.374;4.946;2023-08-06T09:39:35;6.93;;;2.90;;
25091;SDS011;13082;52.374;4.946;2023-08-06T09:42:02;4.37;;;3.40;;
25091;SDS011;13082;52.374;4.946;2023-08-06T09:44:30;6.70;;;3.10;;
25091;SDS011;13082;52.374;4.946;2023-08-06T09:46:57;4.87;;;3.17;;
25091;SDS011;13082;52.374;4.946;2023-08-06T09:52:01;2.47;;;2.27;;
25091;SDS011;13082;52.374;4.946;2023-08-06T09:54:27;8.90;;;3.10;;
25091;SDS011;13082;52.374;4.946;2023-08-06T09:56:55;4.60;;;2.47;;
25091;SDS011;13082;52.374;4.946;2023-08-06T09:59:24;5.43;;;3.53;;
25091;SDS011;13082;52.374;4.946;2023-08-06T10:01:50;3.03;;;2.43;;
25091;SDS011;13082;52.374;4.946;2023-08-06T10:04:16;4.73;;;2.50;;
25091;SDS011;13082;52.374;4.946;2023-08-06T10:06:43;6.23;;;2.10;;
25091;SDS011;13082;52.374;4.946;2023-08-06T10:09:12;4.47;;;2.40;;
25091;SDS011;13082;52.374;4.946;2023-08-06T10:11:38;2.50;;;1.90;;
25091;SDS011;13082;52.374;4.946;2023-08-06T10:17:04;7.30;;;2.50;;
25091;SDS011;13082;52.374;4.946;2023-08-06T10:19:30;2.63;;;2.00;;
25091;SDS011;13082;52.374;4.946;2023-08-06T10:22:15;2.27;;;1.57;;
25091;SDS011;13082;52.374;4.946;2023-08-06T10:32:50;1.67;;;1.57;;
25091;SDS011;13082;52.374;4.946;2023-08-06T10:40:47;3.43;;;2.03;;
25091;SDS011;13082;52.374;4.946;2023-08-06T10:43:34;1.50;;;1.40;;
25091;SDS011;13082;52.374;4.946;2023-08-06T10:46:50;7.13;;;2.00;;
25091;SDS011;13082;52.374;4.946;2023-08-06T10:48:53;2.80;;;1.63;;
25091;SDS011;13082;52.374;4.946;2023-08-06T10:51:19;2.30;;;2.00;;
25091;SDS011;13082;52.374;4.946;2023-08-06T10:53:45;2.77;;;1.77;;
25091;SDS011;13082;52.374;4.946;2023-08-06T10:56:17;2.10;;;1.63;;
25091;SDS011;13082;52.374;4.946;2023-08-06T10:58:44;4.43;;;1.90;;
25091;SDS011;13082;52.374;4.946;2023-08-06T11:01:11;2.87;;;1.83;;
25091;SDS011;13082;52.374;4.946;2023-08-06T11:03:37;2.37;;;1.60;;
25091;SDS011;13082;52.374;4.946;2023-08-06T11:06:03;2.77;;;1.67;;
25091;SDS011;13082;52.374;4.946;2023-08-06T11:08:33;3.17;;;1.63;;
25091;SDS011;13082;52.374;4.946;2023-08-06T11:13:48;1.57;;;1.47;;
25091;SDS011;13082;52.374;4.946;2023-08-06T11:16:18;1.77;;;1.40;;
25091;SDS011;13082;52.374;4.946;2023-08-06T11:18:45;1.60;;;1.30;;
25091;SDS011;13082;52.374;4.946;2023-08-06T11:21:12;5.60;;;1.43;;
25091;SDS011;13082;52.374;4.946;2023-08-06T11:23:38;4.00;;;1.70;;
25091;SDS011;13082;52.374;4.946;2023-08-06T11:26:05;3.47;;;1.60;;
25091;SDS011;13082;52.374;4.946;2023-08-06T11:28:31;2.47;;;1.97;;
25091;SDS011;13082;52.374;4.946;2023-08-06T11:30:57;1.47;;;1.37;;
25091;SDS011;13082;52.374;4.946;2023-08-06T11:33:26;1.53;;;1.43;;
25091;SDS011;13082;52.374;4.946;2023-08-06T11:35:56;1.63;;;1.53;;
25091;SDS011;13082;52.374;4.946;2023-08-06T11:38:26;1.73;;;1.63;;
25091;SDS011;13082;52.374;4.946;2023-08-06T11:40:53;3.27;;;1.70;;
25091;SDS011;13082;52.374;4.946;2023-08-06T11:43:20;3.27;;;1.90;;
25091;SDS011;13082;52.374;4.946;2023-08-06T11:45:47;4.27;;;2.10;;
25091;SDS011;13082;52.374;4.946;2023-08-06T11:48:18;5.67;;;2.03;;
25091;SDS011;13082;52.374;4.946;2023-08-06T11:50:43;3.07;;;1.87;;
25091;SDS011;13082;52.374;4.946;2023-08-06T11:53:11;3.23;;;2.03;;
25091;SDS011;13082;52.374;4.946;2023-08-06T11:55:38;4.43;;;2.13;;
25091;SDS011;13082;52.374;4.946;2023-08-06T11:58:05;3.53;;;2.20;;
25091;SDS011;13082;52.374;4.946;2023-08-06T12:00:30;3.43;;;1.90;;
25091;SDS011;13082;52.374;4.946;2023-08-06T12:02:56;3.93;;;2.00;;
25091;SDS011;13082;52.374;4.946;2023-08-06T12:05:23;2.03;;;1.83;;
25091;SDS011;13082;52.374;4.946;2023-08-06T12:07:57;1.70;;;1.60;;
25091;SDS011;13082;52.374;4.946;2023-08-06T12:10:24;2.57;;;1.83;;
25091;SDS011;13082;52.374;4.946;2023-08-06T12:12:51;3.60;;;2.10;;
25091;SDS011;13082;52.374;4.946;2023-08-06T12:15:17;3.20;;;2.07;;
25091;SDS011;13082;52.374;4.946;2023-08-06T12:17:43;2.30;;;1.87;;
25091;SDS011;13082;52.374;4.946;2023-08-06T12:20:09;3.13;;;1.70;;
25091;SDS011;13082;52.374;4.946;2023-08-06T12:22:35;4.43;;;1.40;;
25091;SDS011;13082;52.374;4.946;2023-08-06T12:25:04;1.40;;;1.30;;
25091;SDS011;13082;52.374;4.946;2023-08-06T12:27:33;2.53;;;1.73;;
25091;SDS011;13082;52.374;4.946;2023-08-06T12:29:59;1.70;;;1.60;;
25091;SDS011;13082;52.374;4.946;2023-08-06T12:32:25;1.53;;;1.43;;
25091;SDS011;13082;52.374;4.946;2023-08-06T12:34:51;1.50;;;1.40;;
25091;SDS011;13082;52.374;4.946;2023-08-06T12:37:16;1.67;;;1.57;;
25091;SDS011;13082;52.374;4.946;2023-08-06T12:39:42;1.70;;;1.60;;
25091;SDS011;13082;52.374;4.946;2023-08-06T12:42:07;2.07;;;1.60;;
25091;SDS011;13082;52.374;4.946;2023-08-06T12:44:33;1.93;;;1.50;;
25091;SDS011;13082;52.374;4.946;2023-08-06T12:46:59;1.97;;;1.80;;
25091;SDS011;13082;52.374;4.946;2023-08-06T12:49:25;2.60;;;1.60;;
25091;SDS011;13082;52.374;4.946;2023-08-06T12:51:51;3.83;;;1.73;;
25091;SDS011;13082;52.374;4.946;2023-08-06T12:54:18;2.90;;;1.90;;
25091;SDS011;13082;52.374;4.946;2023-08-06T12:56:45;1.57;;;1.47;;
25091;SDS011;13082;52.374;4.946;2023-08-06T12:59:13;1.37;;;1.27;;
25091;SDS011;13082;52.374;4.946;2023-08-06T13:01:40;1.70;;;1.30;;
25091;SDS011;13082;52.374;4.946;2023-08-06T13:04:05;1.57;;;1.47;;
25091;SDS011;13082;52.374;4.946;2023-08-06T13:06:31;2.03;;;1.50;;
25091;SDS011;13082;52.374;4.946;2023-08-06T13:09:05;1.87;;;1.57;;
25091;SDS011;13082;52.374;4.946;2023-08-06T13:11:33;1.83;;;1.33;;
25091;SDS011;13082;52.374;4.946;2023-08-06T13:14:09;2.17;;;1.80;;
25091;SDS011;13082;52.374;4.946;2023-08-06T13:16:36;2.57;;;1.63;;
25091;SDS011;13082;52.374;4.946;2023-08-06T13:19:03;1.80;;;1.70;;
25091;SDS011;13082;52.374;4.946;2023-08-06T13:24:20;1.97;;;1.40;;
25091;SDS011;13082;52.374;4.946;2023-08-06T13:26:46;2.17;;;1.70;;
25091;SDS011;13082;52.374;4.946;2023-08-06T13:29:11;1.30;;;1.17;;
25091;SDS011;13082;52.374;4.946;2023-08-06T13:31:37;1.90;;;1.20;;
25091;SDS011;13082;52.374;4.946;2023-08-06T13:34:03;1.40;;;1.30;;
25091;SDS011;13082;52.374;4.946;2023-08-06T13:36:29;3.20;;;1.70;;
25091;SDS011;13082;52.374;4.946;2023-08-06T13:38:55;1.80;;;1.70;;
25091;SDS011;13082;52.374;4.946;2023-08-06T13:41:21;3.83;;;2.13;;
25091;SDS011;13082;52.374;4.946;2023-08-06T13:43:47;2.87;;;1.50;;
25091;SDS011;13082;52.374;4.946;2023-08-06T13:46:12;1.57;;;1.47;;
25091;SDS011;13082;52.374;4.946;2023-08-06T13:48:43;1.50;;;1.40;;
25091;SDS011;13082;52.374;4.946;2023-08-06T13:51:10;2.55;;;1.42;;
25091;SDS011;13082;52.374;4.946;2023-08-06T13:53:39;2.67;;;1.43;;
25091;SDS011;13082;52.374;4.946;2023-08-06T13:56:05;3.37;;;1.57;;
25091;SDS011;13082;52.374;4.946;2023-08-06T13:58:31;1.30;;;1.20;;
25091;SDS011;13082;52.374;4.946;2023-08-06T14:00:57;1.60;;;1.20;;
25091;SDS011;13082;52.374;4.946;2023-08-06T14:03:23;1.90;;;1.17;;
25091;SDS011;13082;52.374;4.946;2023-08-06T14:05:48;1.43;;;1.10;;
25091;SDS011;13082;52.374;4.946;2023-08-06T14:08:15;2.43;;;1.13;;
25091;SDS011;13082;52.374;4.946;2023-08-06T14:10:43;2.23;;;1.10;;
25091;SDS011;13082;52.374;4.946;2023-08-06T14:13:09;3.30;;;1.40;;
25091;SDS011;13082;52.374;4.946;2023-08-06T14:15:35;3.23;;;1.50;;
25091;SDS011;13082;52.374;4.946;2023-08-06T14:18:01;2.40;;;1.20;;
25091;SDS011;13082;52.374;4.946;2023-08-06T14:20:27;4.30;;;1.20;;
25091;SDS011;13082;52.374;4.946;2023-08-06T14:22:53;2.63;;;1.10;;
25091;SDS011;13082;52.374;4.946;2023-08-06T14:25:18;1.90;;;1.00;;
25091;SDS011;13082;52.374;4.946;2023-08-06T14:27:44;7.20;;;1.40;;
25091;SDS011;13082;52.374;4.946;2023-08-06T14:30:10;2.53;;;1.10;;
25091;SDS011;13082;52.374;4.946;2023-08-06T14:32:36;4.93;;;1.10;;
25091;SDS011;13082;52.374;4.946;2023-08-06T14:35:01;2.57;;;1.30;;
25091;SDS011;13082;52.374;4.946;2023-08-06T14:37:27;5.33;;;1.40;;
25091;SDS011;13082;52.374;4.946;2023-08-06T14:39:53;4.40;;;1.10;;
25091;SDS011;13082;52.374;4.946;2023-08-06T14:42:18;9.93;;;1.50;;
25091;SDS011;13082;52.374;4.946;2023-08-06T14:44:44;8.90;;;1.20;;
25091;SDS011;13082;52.374;4.946;2023-08-06T14:47:10;2.23;;;0.90;;
25091;SDS011;13082;52.374;4.946;2023-08-06T14:49:35;5.77;;;1.30;;
25091;SDS011;13082;52.374;4.946;2023-08-06T14:52:02;2.47;;;1.17;;
25091;SDS011;13082;52.374;4.946;2023-08-06T14:54:28;2.83;;;0.80;;
25091;SDS011;13082;52.374;4.946;2023-08-06T14:56:54;7.30;;;1.10;;
25091;SDS011;13082;52.374;4.946;2023-08-06T14:59:19;2.90;;;1.10;;
25091;SDS011;13082;52.374;4.946;2023-08-06T15:01:45;4.93;;;1.07;;
25091;SDS011;13082;52.374;4.946;2023-08-06T15:04:11;1.50;;;1.10;;
25091;SDS011;13082;52.374;4.946;2023-08-06T15:06:36;5.37;;;1.23;;
25091;SDS011;13082;52.374;4.946;2023-08-06T15:09:02;3.53;;;1.27;;
25091;SDS011;13082;52.374;4.946;2023-08-06T15:11:27;3.47;;;1.17;;
25091;SDS011;13082;52.374;4.946;2023-08-06T15:13:53;2.37;;;1.07;;